Aeroporto :
LOGIN :

Iscrizione | Disclaimer

   EN    FR    IT 

 










Sommario :    VFR   VFR Marginale   IFR   IFR Intensivo   IFR Molto Intensivo
Visibilità : 
Base nubi : 
>= 8 km
>= 3000ft
5 / 8 km
1000 / 3000 ft
1500m / 5 km
500 / 1000 ft
800 / 1500m
200 / 500 ft
< 800m
< 200 ft
Simboli :   Temporali  Nebbia  Neve Forte  Precipitazioni Forti  Vento > 20 kt
SIGMETs :   Varie  Temporali  Ghiacco  Turbolenza  Onda orograficha  Ceneri Vulcaniche






- Altitudine del aeroporto : 44 ft
- Codice IATA : SOU


EGHI - Southampton

ULTIMO METAR :
  • 291320Z 23017G27KT 200V270 9999 FEW024 SCT035 08/M01 Q0987

METARs OBSOLETI :
  • 291250Z 23017G37KT 200V280 9000 -SHRA SCT035 08/01 Q0987
  • 291220Z 25017G29KT 210V280 9999 FEW038 08/M01 Q0987
  • 291150Z 25016KT 210V280 9999 SCT038 08/M01 Q0987
  • 291120Z 25014G24KT 210V290 9999 FEW032 08/00 Q0986
  • 291050Z 26011G21KT 230V290 9999 VCSH FEW026 SCT034 07/00 Q0986

TAF TAF EGHI
Valido dal 29 a 12 ore il 29 a 21 ore UTC


291055Z 2912/2921 28012KT 9999 SCT025
BECMG 2912/2915 23018G30KT
TEMPO 2912/2921 6000 SHRAGS
PROB30
TEMPO 2912/2921 3000 +SHRAGS BKN012 BKN025CB
ATIS : +44 23 8062 7103



MetMap, La meteo Aeronautica in un colpo d'occhio ! - Copyright ORBIFLY Dicembre 2007 - Disclaimer

ORBIFLY MET'MAP TEAM :

Programmazione e sviluppo : Alexandra Zaïnal
Concezione : Baudouin d'Aumeries
Aiuto per la programmazione : Marc-Olivier Méhu
Supporto tecnico e logistico : Manuel Goepfert
Aiuto per la traduzione : Arnaldo La Scala

Contatto : metmap@orbifly.com




FONTI E CREDITI :

   NOAA